MET'MAP v2.0
soon released !

Expected late october,
this new version will be
more efficient, smarter,
and hosted on a brand new
server x3 powerfull...
...and still free !


Not compatible ?
Try the mobile version !

LOG IN : | Subscribe | Disclaimer | Who is Orbifly ? |
ICAO code :

TAF - LFBR Muret l'Herm - 15 Dec 2019 05:38 UTC
Data Sources :     NOAA   


- Airport Elevation : 622 ft
- No reported NOTAMs.


LFBR - Muret l'Herm

Latest METAR recorded : 0000/00/00 L :15 TAF LELL 150200Z 1503/1603 27007KT 9999 FEW040 TX17/1513Z TN06/1506Z BECMG 1517/1519 VRB04KT
NO TAF
ATIS : +33 5 61 51 22 74


MET'MAP, your aeronautical weather chart ! - Copyright ORBIFLY December 2007

Programming & Development : Alexandra Zaïnal
Co-Developer : Marc-Olivier Méhu
Technical & hardware support : Manuel Goepfert
Concept & Financing : Baudouin d'Aumeries